Time;durP1;ratioP1;P1;durP2;ratioP2;P2;SDS_P1;SDS_P2;PMS_P1;PMS_P2;Temp;Humidity;BMP_temperature;BMP_pressure;BME280_temperature;BME280_humidity;BME280_pressure;Samples;Min_cycle;Max_cycle;Signal;HPM_P1;HPM_P2
2022/02/10 00:06:07;;;;;;;10.10;8.10;;;;;;;7.79;84.59;100785.73;88005;1275;87941;-74
2022/02/10 00:13:10;;;;;;;12.00;9.60;;;;;;;7.78;84.43;100787.64;88229;1274;93004;-57
2022/02/10 00:13:50;;;;;;;11.00;8.40;;;;;;;7.70;84.36;100792.73;88167;1274;81761;-72
2022/02/10 00:18:30;;;;;;;13.60;8.70;;;;;;;7.67;84.47;100789.14;88080;1274;89592;-58
2022/02/10 00:20:41;;;;;;;11.10;8.60;;;;;;;7.71;84.54;100786.94;88199;1274;95376;-57
2022/02/10 00:23:15;;;;;;;10.40;7.80;;;;;;;7.75;84.48;100788.50;88143;1274;81082;-58
2022/02/10 00:26:16;;;;;;;12.50;8.50;;;;;;;7.76;84.52;100786.99;88167;1274;82263;-57
2022/02/10 00:35:30;;;;;;;12.20;9.00;;;;;;;7.77;84.41;100796.02;88186;1274;81878;-74
2022/02/10 00:37:48;;;;;;;11.10;8.70;;;;;;;7.74;84.34;100800.44;88207;1274;80197;-75
2022/02/10 00:40:08;;;;;;;11.20;9.20;;;;;;;7.72;84.48;100802.98;88170;1274;98865;-73
2022/02/10 00:42:18;;;;;;;11.80;9.10;;;;;;;7.71;84.43;100800.69;88211;1274;89081;-74
2022/02/10 00:44:25;;;;;;;12.40;8.90;;;;;;;7.68;84.56;100800.00;88168;1276;94165;-59
2022/02/10 00:46:48;;;;;;;10.90;7.80;;;;;;;7.71;84.53;100798.23;88184;1274;80282;-75
2022/02/10 00:49:05;;;;;;;10.90;8.50;;;;;;;7.75;84.64;100797.64;88178;1274;82054;-58
2022/02/10 00:51:11;;;;;;;11.60;8.60;;;;;;;7.77;84.65;100800.88;88187;1274;98561;-58
2022/02/10 00:53:24;;;;;;;11.70;9.60;;;;;;;7.81;84.56;100802.45;88171;1274;89509;-74
2022/02/10 00:55:36;;;;;;;10.90;8.80;;;;;;;7.82;84.44;100793.55;88190;1274;96004;-74
2022/02/10 00:57:44;;;;;;;11.70;9.50;;;;;;;7.76;84.50;100793.79;88176;1274;79141;-74
2022/02/10 01:00:09;;;;;;;11.10;8.70;;;;;;;7.75;84.50;100796.38;88242;1273;80663;-74
2022/02/10 01:10:25;;;;;;;11.90;8.50;;;;;;;7.79;84.48;100797.99;87924;1281;96333;-58
2022/02/10 01:24:28;;;;;;;11.60;8.70;;;;;;;7.82;84.59;100798.33;87911;1281;98710;-75
2022/02/10 01:24:34;;;;;;;12.20;8.50;;;;;;;7.73;84.47;100796.00;88170;1274;80601;-74
2022/02/10 01:31:28;;;;;;;;;;;;;;;7.67;84.70;100793.20;88221;1274;93124;-57
2022/02/10 01:33:39;;;;;;;11.90;9.00;;;;;;;7.74;84.77;100797.91;88198;1274;79726;-57
2022/02/10 01:35:48;;;;;;;12.40;8.40;;;;;;;7.81;84.69;100796.37;88204;1273;83527;-58
2022/02/10 01:37:58;;;;;;;9.80;8.20;;;;;;;7.85;84.65;100795.17;88215;1273;99511;-67
2022/02/10 01:40:17;;;;;;;11.20;8.40;;;;;;;7.83;84.75;100800.45;88210;1273;85864;-73
2022/02/10 02:04:14;;;;;;;9.70;8.50;;;;;;;7.77;84.83;100804.27;88193;1274;89094;-74
2022/02/10 02:06:24;;;;;;;12.40;9.60;;;;;;;7.77;84.77;100797.05;88231;1274;95474;-75
2022/02/10 02:08:36;;;;;;;10.60;9.20;;;;;;;7.78;84.86;100801.70;88194;1273;80870;-57
2022/02/10 02:10:42;;;;;;;15.20;10.70;;;;;;;7.79;84.85;100802.61;88193;1273;82794;-57
2022/02/10 02:12:51;;;;;;;15.20;10.40;;;;;;;7.77;84.76;100803.00;88200;1273;99686;-58
2022/02/10 02:15:02;;;;;;;12.90;10.00;;;;;;;7.75;84.78;100803.11;88189;1276;88805;-73
2022/02/10 02:17:09;;;;;;;12.70;9.60;;;;;;;7.73;84.83;100806.25;88153;1276;95955;-74
2022/02/10 02:19:15;;;;;;;10.80;9.20;;;;;;;7.71;84.80;100810.10;88176;1274;82688;-74
2022/02/10 02:21:23;;;;;;;14.20;9.90;;;;;;;7.68;84.85;100802.61;88205;1276;82556;-74
2022/02/10 02:23:30;;;;;;;12.00;10.10;;;;;;;7.69;84.89;100805.82;88199;1275;97615;-74
2022/02/10 02:25:36;;;;;;;10.50;9.20;;;;;;;7.70;84.96;100797.29;88189;1276;88092;-73
2022/02/10 02:27:52;;;;;;;17.70;10.80;;;;;;;7.68;84.97;100800.38;88197;1273;94120;-74
2022/02/10 02:30:10;;;;;;;12.00;10.20;;;;;;;7.68;84.96;100801.92;88190;1273;78740;-73
2022/02/10 02:32:22;;;;;;;14.40;11.50;;;;;;;7.72;84.93;100803.69;88167;1273;82451;-73
2022/02/10 02:35:00;;;;;;;14.80;11.50;;;;;;;7.73;84.93;100800.70;88174;1273;98988;-58
2022/02/10 03:06:20;;;;;;;12.40;10.30;;;;;;;7.63;85.22;100792.05;88187;1273;82777;-58
2022/02/10 03:08:38;;;;;;;11.90;9.80;;;;;;;7.62;85.21;100791.27;88194;1274;82802;-58
2022/02/10 03:11:00;;;;;;;13.60;10.00;;;;;;;7.62;85.30;100794.14;88175;1274;98859;-57
2022/02/10 03:13:09;;;;;;;11.60;9.10;;;;;;;7.64;85.35;100790.85;88201;1274;88020;-56
2022/02/10 03:15:29;;;;;;;12.10;10.10;;;;;;;7.69;85.28;100789.95;88178;1274;94347;-58
2022/02/10 03:17:45;;;;;;;12.80;9.90;;;;;;;7.74;85.23;100789.88;88154;1274;80787;-58
2022/02/10 03:20:02;;;;;;;12.60;9.70;;;;;;;7.77;85.19;100793.55;88191;1274;81735;-57
2022/02/10 03:22:37;;;;;;;12.30;10.00;;;;;;;7.77;85.19;100793.11;88099;1274;98800;-59
2022/02/10 04:01:42;;;;;;;11.40;9.90;;;;;;;7.60;85.51;100786.52;88174;1273;88339;-58
2022/02/10 04:04:06;;;;;;;11.30;9.90;;;;;;;7.62;85.52;100782.73;88166;1273;94256;-58
2022/02/10 04:06:31;;;;;;;10.70;9.40;;;;;;;7.62;85.65;100779.81;88187;1273;79711;-57
2022/02/10 04:09:08;;;;;;;13.50;9.60;;;;;;;7.64;85.74;100777.45;88214;1274;81121;-72
2022/02/10 04:11:34;;;;;;;13.80;10.00;;;;;;;7.67;85.72;100777.63;88192;1273;97495;-73
2022/02/10 04:13:45;;;;;;;11.90;10.20;;;;;;;7.70;85.74;100781.60;88180;1273;88071;-72
2022/02/10 04:15:59;;;;;;;12.60;10.50;;;;;;;7.72;85.72;100789.50;88167;1273;95528;-72
2022/02/10 04:18:41;;;;;;;13.40;10.80;;;;;;;7.69;85.65;100793.38;88183;1273;78756;-58
2022/02/10 04:20:57;;;;;;;12.50;10.60;;;;;;;7.68;85.67;100796.89;88191;1273;82145;-58
2022/02/10 04:23:13;;;;;;;11.60;9.60;;;;;;;7.63;85.73;100800.38;88200;1273;97280;-72
2022/02/10 04:25:38;;;;;;;13.10;9.70;;;;;;;7.61;85.77;100796.04;88207;1273;87564;-73
2022/02/10 04:28:04;;;;;;;11.40;9.60;;;;;;;7.64;85.62;100797.36;88178;1273;93539;-73
2022/02/10 04:30:27;;;;;;;12.10;10.10;;;;;;;7.65;85.80;100803.52;88194;1273;82813;-73
2022/02/10 04:45:27;;;;;;;15.60;11.70;;;;;;;7.70;85.84;100801.94;88105;1273;80153;-73
2022/02/10 04:59:40;;;;;;;14.50;11.50;;;;;;;7.67;86.02;100805.68;87905;1277;97953;-58
2022/02/10 05:02:03;;;;;;;14.50;11.20;;;;;;;7.71;86.02;100802.67;88051;1277;88017;-58
2022/02/10 05:16:48;;;;;;;17.50;11.80;;;;;;;7.62;86.08;100807.40;88181;1276;93436;-71
2022/02/10 05:21:32;;;;;;;15.60;11.00;;;;;;;7.67;86.06;100806.89;88176;1273;80778;-74
2022/02/10 05:24:09;;;;;;;14.30;11.40;;;;;;;7.67;86.02;100810.99;88179;1274;97851;-73
2022/02/10 05:31:36;;;;;;;16.70;12.20;;;;;;;7.62;86.15;100811.77;88197;1273;79073;-57
2022/02/10 05:33:50;;;;;;;13.70;11.90;;;;;;;7.54;86.28;100810.92;88196;1274;81924;-73
2022/02/10 05:35:58;;;;;;;15.40;11.70;;;;;;;7.54;86.27;100809.01;88186;1273;98539;-71
2022/02/10 05:38:05;;;;;;;13.50;10.50;;;;;;;7.55;86.20;100808.84;88160;1275;89257;-69
2022/02/10 05:40:19;;;;;;;15.00;11.30;;;;;;;7.55;86.29;100811.63;88198;1274;95569;-72
2022/02/10 05:45:04;;;;;;;15.10;10.90;;;;;;;7.52;86.29;100818.65;88104;1274;80445;-72
2022/02/10 05:47:37;;;;;;;13.50;11.00;;;;;;;7.54;86.40;100817.61;88195;1274;97809;-71
2022/02/10 05:50:17;;;;;;;15.00;11.10;;;;;;;7.55;86.51;100817.89;88186;1274;89694;-58
2022/02/10 05:52:57;;;;;;;14.80;11.70;;;;;;;7.57;86.48;100816.35;88179;1274;95132;-58
2022/02/10 05:55:24;;;;;;;15.20;10.80;;;;;;;7.58;86.47;100815.45;88200;1274;78815;-71
2022/02/10 05:57:44;;;;;;;17.00;12.60;;;;;;;7.55;86.60;100817.50;88181;1274;82616;-70
2022/02/10 06:02:35;;;;;;;18.10;13.50;;;;;;;7.57;86.58;100815.27;88142;1273;88108;-56
2022/02/10 06:48:59;;;;;;;17.40;11.70;;;;;;;7.65;86.79;100799.08;87806;1281;101600;-58
2022/02/10 06:51:22;;;;;;;16.80;12.50;;;;;;;7.68;86.74;100794.83;88002;1279;87224;-58
2022/02/10 06:53:38;;;;;;;19.40;14.10;;;;;;;7.66;86.66;100789.77;87989;1279;94560;-70
2022/02/10 07:06:05;;;;;;;17.20;12.10;;;;;;;7.66;86.73;100780.98;88029;1280;95938;-73
2022/02/10 07:08:35;;;;;;;17.60;12.40;;;;;;;7.74;86.72;100785.88;88178;1274;80035;-58
2022/02/10 07:47:41;;;;;;;18.60;13.10;;;;;;;7.95;86.61;100817.75;88202;1275;80404;-58
2022/02/10 07:50:09;;;;;;;15.40;12.70;;;;;;;7.96;86.52;100818.02;88208;1274;97107;-58
2022/02/10 07:54:43;;;;;;;19.20;14.20;;;;;;;7.85;86.69;100816.52;88199;1275;95529;-73
2022/02/10 08:26:39;;;;;;;19.90;13.30;;;;;;;7.90;86.67;100807.48;88161;1275;97066;-72
2022/02/10 08:50:21;;;;;;;;;;;;;;;8.10;87.09;100793.34;88198;1274;98350;-59
2022/02/10 08:55:16;;;;;;;19.20;14.30;;;;;;;8.06;87.00;100789.27;88181;1274;93743;-73
2022/02/10 08:57:29;;;;;;;21.00;14.30;;;;;;;8.07;87.08;100788.15;88186;1274;81009;-73
2022/02/10 09:04:48;;;;;;;18.00;13.30;;;;;;;8.07;87.15;100787.52;87990;1278;89334;-72
2022/02/10 09:07:12;;;;;;;19.70;13.80;;;;;;;8.09;87.27;100784.89;87997;1279;95363;-71
2022/02/10 09:22:25;;;;;;;23.50;15.70;;;;;;;8.41;87.27;100772.46;88001;1279;81600;-74
2022/02/10 09:56:44;;;;;;;22.00;15.40;;;;;;;8.57;87.13;100750.22;88011;1275;94558;-74
2022/02/10 09:59:13;;;;;;;20.30;15.10;;;;;;;8.64;86.94;100749.80;88206;1274;79301;-59
2022/02/10 10:01:27;;;;;;;20.60;16.00;;;;;;;8.71;86.92;100748.77;88190;1275;83019;-59
2022/02/10 10:03:40;;;;;;;21.60;15.70;;;;;;;8.70;86.83;100744.25;88245;1274;99368;-71
2022/02/10 10:05:59;;;;;;;22.00;16.10;;;;;;;8.72;86.85;100741.46;88209;1274;88886;-71
2022/02/10 10:08:21;;;;;;;22.60;16.10;;;;;;;8.73;86.94;100740.24;88176;1274;93806;-73
2022/02/10 10:15:33;;;;;;;25.70;17.70;;;;;;;8.71;86.85;100728.09;88206;1275;100185;-74
2022/02/10 10:17:57;;;;;;;19.00;14.40;;;;;;;8.71;86.83;100722.07;88204;1274;89239;-74
2022/02/10 10:20:17;;;;;;;;;;;;;;;8.65;86.86;100721.09;88212;1275;93564;-59
2022/02/10 10:25:26;;;;;;;21.10;15.60;;;;;;;8.64;86.77;100715.31;88152;1274;80349;-78
2022/02/10 10:27:41;;;;;;;18.90;14.40;;;;;;;8.60;86.94;100716.63;88191;1275;97263;-76
2022/02/10 10:45:15;;;;;;;22.70;16.80;;;;;;;8.55;87.03;100709.63;88198;1275;94578;-80
2022/02/10 10:49:54;;;;;;;20.40;14.40;;;;;;;8.55;86.81;100699.79;88218;1274;80886;-57
2022/02/10 10:52:08;;;;;;;17.90;13.50;;;;;;;8.53;86.84;100698.88;88170;1276;98443;-57
2022/02/10 10:54:21;;;;;;;17.30;13.70;;;;;;;8.51;86.91;100693.36;88216;1277;87663;-70
2022/02/10 10:56:33;;;;;;;17.00;13.50;;;;;;;8.59;86.94;100692.86;88207;1274;94429;-73
2022/02/10 10:58:58;;;;;;;17.90;14.50;;;;;;;8.63;87.08;100689.39;88181;1274;80175;-74
2022/02/10 11:03:39;;;;;;;15.40;13.50;;;;;;;8.75;87.05;100683.34;88226;1274;82020;-72
2022/02/10 11:04:40;;;;;;;16.20;13.00;;;;;;;8.85;86.98;100685.65;88228;1274;98927;-73
2022/02/10 11:37:05;;;;;;;15.00;11.00;;;;;;;8.69;85.89;100627.48;87892;1275;80405;-80
2022/02/10 11:39:34;;;;;;;16.20;12.40;;;;;;;8.69;85.97;100626.23;88206;1274;82336;-58
2022/02/10 11:42:08;;;;;;;14.10;11.40;;;;;;;8.73;86.14;100623.73;88196;1274;99434;-59
2022/02/10 12:00:20;;;;;;;12.80;10.60;;;;;;;9.55;85.62;100592.99;88226;1274;95789;-60
2022/02/10 12:37:53;;;;;;;9.80;7.90;;;;;;;10.37;83.68;100542.09;88127;1274;94641;-77
2022/02/10 12:43:32;;;;;;;12.10;9.30;;;;;;;10.30;83.34;100535.41;87977;1281;82526;-59
2022/02/10 14:10:32;;;;;;;10.20;8.10;;;;;;;9.18;84.05;100451.05;87823;1283;80178;-60
2022/02/10 14:12:57;;;;;;;11.30;8.50;;;;;;;9.13;84.12;100448.52;87740;1284;81781;-71
2022/02/10 14:15:14;;;;;;;10.10;8.30;;;;;;;9.13;84.30;100446.16;87831;1282;99779;-71
2022/02/10 14:17:30;;;;;;;12.60;9.10;;;;;;;9.12;84.31;100441.63;87834;1282;89510;-62
2022/02/10 14:19:39;;;;;;;11.50;9.10;;;;;;;9.08;84.43;100437.41;87841;1282;94684;-59
2022/02/10 14:21:59;;;;;;;12.30;9.50;;;;;;;9.04;84.31;100434.50;87822;1282;78934;-59
2022/02/10 14:26:45;;;;;;;10.20;7.70;;;;;;;9.03;84.35;100421.58;88066;1276;98895;-75
2022/02/10 14:28:53;;;;;;;11.40;8.30;;;;;;;9.02;84.39;100416.94;88164;1276;87423;-75
2022/02/10 14:31:04;;;;;;;11.50;8.00;;;;;;;9.06;84.44;100419.08;88129;1278;94035;-74
2022/02/10 14:33:21;;;;;;;11.30;8.20;;;;;;;9.03;84.53;100412.15;88060;1277;81412;-58
2022/02/10 14:35:33;;;;;;;10.20;7.30;;;;;;;9.05;84.56;100407.05;88172;1276;83753;-60
2022/02/10 14:38:03;;;;;;;9.40;7.50;;;;;;;9.08;84.53;100401.86;88169;1276;97520;-58
2022/02/10 14:40:25;;;;;;;8.80;5.60;;;;;;;9.09;84.53;100398.77;88105;1276;89812;-60
2022/02/10 15:16:51;;;;;;;7.30;5.20;;;;;;;8.31;85.03;100352.89;87983;1276;88691;-61
2022/02/10 15:21:36;;;;;;;9.90;5.80;;;;;;;8.26;85.21;100349.16;87838;1278;82269;-57
2022/02/10 15:36:33;;;;;;;15.00;10.00;;;;;;;8.10;85.50;100345.33;88152;1276;81898;-57
2022/02/10 15:49:11;;;;;;;19.00;12.10;;;;;;;8.02;85.51;100332.05;88028;1276;80461;-79
2022/02/10 15:54:18;;;;;;;16.00;11.90;;;;;;;7.86;85.74;100335.50;88071;1279;86890;-84
2022/02/10 16:11:31;;;;;;;16.10;11.30;;;;;;;7.63;85.51;100304.24;88174;1276;82357;-59
2022/02/10 16:18:44;;;;;;;14.80;11.10;;;;;;;7.51;85.45;100298.77;87902;1281;88372;-72
2022/02/10 16:20:58;;;;;;;16.10;11.10;;;;;;;7.44;85.46;100299.16;87946;1281;95418;-75
2022/02/10 16:23:15;;;;;;;14.70;11.00;;;;;;;7.40;85.39;100299.45;88071;1277;78306;-74
2022/02/10 16:25:24;;;;;;;13.20;10.50;;;;;;;7.40;85.42;100299.27;88087;1276;81433;-76
2022/02/10 16:27:35;;;;;;;16.70;11.00;;;;;;;7.41;85.34;100295.04;88096;1276;98605;-73
2022/02/10 16:29:45;;;;;;;16.80;11.30;;;;;;;7.42;85.39;100295.47;88149;1276;87339;-73
2022/02/10 16:31:51;;;;;;;16.10;10.90;;;;;;;7.44;85.42;100292.92;88155;1275;93786;-74
2022/02/10 16:33:58;;;;;;;15.60;10.30;;;;;;;7.47;85.33;100295.11;88082;1277;81079;-73
2022/02/10 16:36:15;;;;;;;15.80;10.60;;;;;;;7.52;85.27;100299.96;88140;1276;83015;-75
2022/02/10 16:38:20;;;;;;;14.50;10.80;;;;;;;7.53;85.24;100297.15;88148;1276;97936;-73
2022/02/10 16:40:29;;;;;;;16.40;11.10;;;;;;;7.53;85.24;100293.30;88175;1276;88897;-75
2022/02/10 16:42:36;;;;;;;16.10;11.10;;;;;;;7.57;85.25;100297.25;88152;1276;94966;-56
2022/02/10 16:44:43;;;;;;;15.80;11.20;;;;;;;7.57;85.08;100293.08;88156;1276;78085;-59
2022/02/10 16:46:49;;;;;;;15.20;11.70;;;;;;;7.53;85.10;100288.66;88168;1276;80392;-59
2022/02/10 16:48:58;;;;;;;16.60;12.10;;;;;;;7.52;85.07;100290.40;88158;1276;99259;-76
2022/02/10 16:51:08;;;;;;;18.70;12.40;;;;;;;7.48;85.03;100283.12;88133;1276;88881;-74
2022/02/10 16:53:21;;;;;;;16.40;11.00;;;;;;;7.47;84.91;100278.63;88171;1276;94843;-73
2022/02/10 16:55:42;;;;;;;15.40;11.90;;;;;;;7.46;84.84;100269.02;88159;1276;81772;-77
2022/02/10 16:58:01;;;;;;;15.30;11.50;;;;;;;7.45;84.97;100268.16;88220;1276;82658;-58
2022/02/10 17:00:31;;;;;;;16.60;12.00;;;;;;;7.43;84.91;100272.66;88060;1277;98656;-57
2022/02/10 17:17:45;;;;;;;17.40;11.60;;;;;;;7.38;84.71;100277.76;87979;1276;95765;-78
2022/02/10 17:20:11;;;;;;;16.40;11.60;;;;;;;7.37;84.73;100276.04;88094;1276;80348;-79
2022/02/10 17:27:11;;;;;;;18.10;12.20;;;;;;;7.44;84.79;100258.91;88177;1276;88958;-58
2022/02/10 17:29:30;;;;;;;17.40;12.00;;;;;;;7.45;84.85;100254.82;88165;1276;94833;-58
2022/02/10 17:31:46;;;;;;;15.80;12.10;;;;;;;7.44;84.76;100252.84;88123;1276;80262;-59
2022/02/10 17:36:27;;;;;;;19.10;13.70;;;;;;;7.44;84.60;100241.48;88137;1276;99208;-59
2022/02/10 17:46:04;;;;;;;16.30;12.80;;;;;;;7.41;84.50;100222.58;88151;1276;81466;-75
2022/02/10 17:53:01;;;;;;;17.70;12.30;;;;;;;7.49;84.51;100213.30;88079;1276;95810;-60
2022/02/10 17:55:10;;;;;;;16.40;11.80;;;;;;;7.50;84.37;100206.21;88152;1276;77279;-58
2022/02/10 17:57:17;;;;;;;16.70;12.30;;;;;;;7.51;84.19;100207.76;88200;1276;81429;-75
2022/02/10 17:59:28;;;;;;;15.40;11.80;;;;;;;7.51;84.10;100207.76;88173;1276;99403;-73
2022/02/10 18:01:37;;;;;;;17.30;12.50;;;;;;;7.47;84.02;100198.12;88185;1276;85525;-81
2022/02/10 18:03:43;;;;;;;18.60;12.90;;;;;;;7.40;83.98;100198.76;88160;1276;95304;-58
2022/02/10 18:06:01;;;;;;;15.50;11.70;;;;;;;7.38;84.08;100195.65;88164;1276;80489;-59
2022/02/10 18:08:15;;;;;;;15.20;12.10;;;;;;;7.36;83.90;100189.98;88054;1277;85472;-60
2022/02/10 18:10:59;;;;;;;14.90;11.00;;;;;;;7.35;83.96;100185.21;88173;1276;99178;-59
2022/02/10 18:15:24;;;;;;;15.60;11.40;;;;;;;7.44;83.70;100180.98;88169;1276;93205;-76
2022/02/10 18:17:34;;;;;;;17.10;11.30;;;;;;;7.49;83.81;100176.99;88168;1276;78739;-76
2022/02/10 18:19:47;;;;;;;16.90;12.40;;;;;;;7.52;83.75;100174.80;88190;1276;81034;-78
2022/02/10 18:22:28;;;;;;;16.90;11.90;;;;;;;7.54;83.57;100174.86;88223;1276;98626;-81
2022/02/10 18:24:55;;;;;;;15.00;10.80;;;;;;;7.50;83.54;100171.70;88377;1276;85815;-75
2022/02/10 18:27:17;;;;;;;14.90;11.50;;;;;;;7.47;83.50;100168.84;88194;1276;95859;-67
2022/02/10 18:29:59;;;;;;;15.60;10.60;;;;;;;7.45;83.31;100161.52;88201;1276;79422;-77
2022/02/10 18:54:36;;;;;;;15.90;11.90;;;;;;;7.39;83.18;100139.75;88067;1276;80484;-60
2022/02/10 19:06:56;;;;;;;20.50;12.00;;;;;;;7.56;83.14;100137.63;87947;1281;79650;-58
2022/02/10 19:09:10;;;;;;;18.50;11.30;;;;;;;7.57;83.04;100136.42;87991;1277;81724;-74
2022/02/10 19:11:20;;;;;;;16.80;12.20;;;;;;;7.52;82.85;100134.52;88151;1276;99444;-77
2022/02/10 19:13:28;;;;;;;17.80;12.20;;;;;;;7.55;82.64;100135.98;88121;1276;86001;-57
2022/02/10 19:15:37;;;;;;;14.70;10.30;;;;;;;7.55;82.62;100132.14;88172;1276;95316;-59
2022/02/10 19:17:44;;;;;;;14.50;10.30;;;;;;;7.57;82.59;100133.54;88199;1276;79665;-78
2022/02/10 19:19:53;;;;;;;17.00;9.80;;;;;;;7.61;82.65;100132.37;88174;1276;82585;-78
2022/02/10 19:22:05;;;;;;;16.10;10.00;;;;;;;7.68;82.53;100127.47;88182;1276;97623;-70
2022/02/10 19:24:13;;;;;;;16.40;10.30;;;;;;;7.76;82.61;100130.71;88156;1276;88880;-76
2022/02/10 19:26:20;;;;;;;14.00;10.00;;;;;;;7.84;82.43;100133.68;88160;1276;94053;-58
2022/02/10 19:28:29;;;;;;;17.80;10.50;;;;;;;7.90;82.13;100138.55;88084;1276;78198;-57
2022/02/10 19:30:38;;;;;;;14.80;10.40;;;;;;;7.95;82.29;100140.67;88063;1277;82674;-57
2022/02/10 19:32:50;;;;;;;16.20;9.80;;;;;;;7.96;82.33;100144.13;88176;1276;99214;-58
2022/02/10 19:34:58;;;;;;;15.70;10.80;;;;;;;7.95;82.19;100144.64;87485;1276;891092;-59
2022/02/10 19:37:09;;;;;;;14.70;9.90;;;;;;;7.93;82.09;100149.80;88079;1276;93626;-61
2022/02/10 19:39:19;;;;;;;15.20;10.00;;;;;;;7.93;81.89;100153.83;88159;1276;81232;-59
2022/02/10 19:41:31;;;;;;;14.20;9.50;;;;;;;7.93;81.78;100153.23;88184;1276;80356;-58
2022/02/10 19:43:37;;;;;;;14.70;9.30;;;;;;;7.96;81.90;100154.14;88168;1276;97797;-82
2022/02/10 19:45:43;;;;;;;14.80;9.60;;;;;;;7.99;81.84;100155.38;88163;1276;88093;-77
2022/02/10 19:47:51;;;;;;;16.50;10.30;;;;;;;8.03;81.82;100165.98;88070;1276;93606;-78
2022/02/10 19:49:59;;;;;;;16.20;10.30;;;;;;;8.06;81.99;100165.30;88158;1276;78761;-80
2022/02/10 19:52:08;;;;;;;16.10;10.60;;;;;;;8.09;82.02;100167.47;88146;1276;81199;-79
2022/02/10 19:54:22;;;;;;;16.80;11.60;;;;;;;8.11;81.95;100169.02;88185;1276;96080;-79
2022/02/10 19:56:32;;;;;;;;;;;;;;;8.11;81.90;100175.48;88212;1276;87544;-82
2022/02/10 19:58:42;;;;;;;17.40;12.00;;;;;;;8.11;81.71;100174.08;88187;1276;93480;-76
2022/02/10 20:00:50;;;;;;;15.10;10.90;;;;;;;8.07;81.80;100174.55;88166;1276;79394;-79
2022/02/10 20:03:00;;;;;;;16.70;11.10;;;;;;;8.03;81.74;100178.04;88148;1276;82619;-59
2022/02/10 20:05:09;;;;;;;19.20;12.40;;;;;;;8.01;81.64;100181.92;88108;1276;98454;-58
2022/02/10 20:07:16;;;;;;;23.20;12.40;;;;;;;8.00;81.90;100186.83;88161;1276;87463;-61
2022/02/10 20:09:25;;;;;;;17.60;11.70;;;;;;;7.99;82.02;100187.85;88115;1276;93742;-61
2022/02/10 20:11:34;;;;;;;17.70;10.50;;;;;;;8.03;82.03;100185.23;88174;1276;80345;-82
2022/02/10 20:13:40;;;;;;;17.40;11.00;;;;;;;8.08;82.10;100187.02;88193;1276;82157;-61
2022/02/10 20:15:47;;;;;;;17.80;11.50;;;;;;;8.12;82.13;100189.58;88180;1276;97676;-60
2022/02/10 20:17:56;;;;;;;19.00;11.30;;;;;;;8.15;82.15;100189.39;88130;1276;87866;-78
2022/02/10 20:20:03;;;;;;;17.60;11.90;;;;;;;8.17;82.12;100192.36;88175;1276;94337;-86
2022/02/10 20:22:10;;;;;;;15.70;10.30;;;;;;;8.16;82.10;100190.85;88143;1276;81392;-61
2022/02/10 20:24:17;;;;;;;15.10;9.80;;;;;;;8.14;82.05;100191.77;88191;1276;82341;-60
2022/02/10 20:26:26;;;;;;;14.60;9.80;;;;;;;8.09;81.99;100195.00;88174;1275;98346;-61
2022/02/10 20:28:34;;;;;;;14.70;9.80;;;;;;;8.06;82.03;100205.52;88109;1276;86732;-59
2022/02/10 20:30:41;;;;;;;13.60;9.10;;;;;;;8.05;82.04;100210.73;88172;1276;95323;-61
2022/02/10 20:32:48;;;;;;;15.60;9.80;;;;;;;8.07;82.04;100216.80;88164;1276;80324;-78
2022/02/10 20:34:57;;;;;;;14.40;9.50;;;;;;;8.10;82.13;100222.27;88197;1276;83143;-59
2022/02/10 20:37:07;;;;;;;13.70;9.40;;;;;;;8.11;82.15;100220.88;88067;1277;98262;-61
2022/02/10 20:39:17;;;;;;;14.50;9.40;;;;;;;8.11;82.34;100215.69;88172;1276;87322;-59
2022/02/10 20:41:32;;;;;;;13.60;9.70;;;;;;;8.06;82.45;100226.44;88105;1276;95677;-59
2022/02/10 20:43:44;;;;;;;14.40;10.40;;;;;;;8.03;82.55;100228.89;88115;1276;79114;-81
2022/02/10 20:46:02;;;;;;;15.50;10.60;;;;;;;8.00;82.45;100228.79;88179;1276;82198;-81
2022/02/10 20:48:10;;;;;;;14.80;10.40;;;;;;;7.93;82.49;100233.17;88206;1276;98606;-77
2022/02/10 20:50:20;;;;;;;18.60;11.40;;;;;;;7.92;82.51;100232.84;88071;1278;88426;-71
2022/02/10 20:52:31;;;;;;;20.40;12.50;;;;;;;7.89;82.53;100234.77;88244;1276;93709;-59
2022/02/10 20:54:42;;;;;;;19.10;12.70;;;;;;;7.87;82.54;100234.41;88088;1276;81920;-58
2022/02/10 20:56:48;;;;;;;18.00;12.10;;;;;;;7.87;82.73;100234.11;88192;1276;80615;-58
2022/02/10 20:58:59;;;;;;;15.40;10.90;;;;;;;7.85;82.82;100234.12;88193;1276;98107;-60
2022/02/10 21:01:10;;;;;;;15.00;10.80;;;;;;;7.88;82.91;100236.32;88112;1276;89109;-59
2022/02/10 21:03:16;;;;;;;16.30;10.80;;;;;;;7.94;82.88;100236.00;88079;1276;95489;-59
2022/02/10 21:05:32;;;;;;;20.00;14.00;;;;;;;7.95;82.94;100236.52;88072;1276;78898;-59
2022/02/10 21:07:43;;;;;;;21.50;14.20;;;;;;;7.90;82.95;100239.51;88116;1276;81846;-58
2022/02/10 21:09:54;;;;;;;19.80;14.80;;;;;;;7.84;83.06;100239.48;88198;1276;98038;-60
2022/02/10 21:12:09;;;;;;;19.20;13.50;;;;;;;7.82;83.07;100245.93;88101;1276;88673;-74
2022/02/10 21:14:20;;;;;;;17.40;13.00;;;;;;;7.77;83.08;100248.17;88162;1276;95382;-58
2022/02/10 21:16:29;;;;;;;17.40;13.20;;;;;;;7.72;83.15;100259.21;88170;1276;82731;-60
2022/02/10 21:18:38;;;;;;;16.70;13.20;;;;;;;7.70;83.25;100264.86;88099;1276;82324;-80
2022/02/10 21:20:49;;;;;;;18.30;13.10;;;;;;;7.73;83.46;100262.73;88183;1276;99120;-77
2022/02/10 21:23:03;;;;;;;20.30;12.70;;;;;;;7.71;83.52;100264.96;88130;1276;89278;-60
2022/02/10 21:25:19;;;;;;;18.20;13.00;;;;;;;7.68;83.61;100257.71;88065;1276;95187;-58
2022/02/10 21:27:32;;;;;;;15.70;12.60;;;;;;;7.74;83.66;100261.73;88175;1276;78218;-79
2022/02/10 21:29:53;;;;;;;19.30;14.80;;;;;;;7.74;83.86;100264.45;88134;1276;83766;-79
2022/02/10 21:32:02;;;;;;;18.10;14.00;;;;;;;7.76;83.86;100265.69;88174;1276;96960;-66
2022/02/10 21:34:13;;;;;;;20.20;15.20;;;;;;;7.79;83.99;100270.52;88105;1276;86958;-80
2022/02/10 21:38:58;;;;;;;23.20;16.40;;;;;;;7.72;83.91;100275.79;88075;1276;81516;-59
2022/02/10 22:03:55;;;;;;;21.70;16.10;;;;;;;7.57;84.84;100291.98;88149;1276;78363;-60
2022/02/10 22:06:20;;;;;;;19.40;14.40;;;;;;;7.44;84.74;100297.20;88206;1274;82653;-59
2022/02/10 22:11:26;;;;;;;13.70;10.60;;;;;;;7.35;84.62;100306.04;87948;1281;88840;-58
2022/02/10 22:20:56;;;;;;;14.10;9.30;;;;;;;7.28;84.65;100321.09;88189;1274;98025;-58
2022/02/10 22:23:15;;;;;;;14.50;10.80;;;;;;;7.26;84.57;100323.24;88161;1276;88672;-58
2022/02/10 22:25:25;;;;;;;14.00;10.00;;;;;;;7.24;84.59;100321.02;88144;1276;94849;-59
2022/02/10 22:27:35;;;;;;;14.20;10.50;;;;;;;7.20;84.54;100320.19;88160;1274;77411;-58
2022/02/10 22:29:50;;;;;;;13.00;9.60;;;;;;;7.16;84.57;100323.69;88183;1276;80946;-57
2022/02/10 22:32:11;;;;;;;12.70;9.50;;;;;;;7.08;84.60;100321.67;88174;1274;98701;-58
2022/02/10 22:34:30;;;;;;;11.00;8.10;;;;;;;7.03;84.59;100324.61;88162;1274;88895;-81
2022/02/10 22:36:42;;;;;;;10.70;8.00;;;;;;;6.96;84.45;100329.31;88184;1274;94568;-77
2022/02/10 22:38:53;;;;;;;12.70;9.20;;;;;;;6.91;84.60;100322.73;88154;1276;81307;-80
2022/02/10 22:41:03;;;;;;;11.10;8.10;;;;;;;6.92;84.62;100322.64;88196;1274;81354;-72
2022/02/10 22:43:13;;;;;;;10.40;7.50;;;;;;;6.93;84.56;100325.54;88189;1274;98568;-76
2022/02/10 22:45:22;;;;;;;9.40;7.30;;;;;;;6.93;84.51;100325.41;88177;1274;87619;-76
2022/02/10 22:47:28;;;;;;;9.80;7.30;;;;;;;6.89;84.39;100331.59;88179;1276;95350;-77
2022/02/10 22:49:40;;;;;;;8.10;6.20;;;;;;;6.85;84.28;100335.17;88218;1274;80291;-76
2022/02/10 22:51:47;;;;;;;7.60;5.50;;;;;;;6.74;84.26;100341.48;88194;1276;80527;-75
2022/02/10 22:53:56;;;;;;;8.30;6.20;;;;;;;6.66;84.15;100346.43;88157;1274;97157;-58
2022/02/10 22:56:09;;;;;;;6.20;5.20;;;;;;;6.61;83.99;100351.05;88194;1274;87836;-58
2022/02/10 22:58:15;;;;;;;7.30;5.70;;;;;;;6.56;84.07;100362.75;88180;1274;94516;-58
2022/02/10 23:00:33;;;;;;;6.70;4.90;;;;;;;6.46;84.07;100368.40;88182;1274;81827;-56
2022/02/10 23:02:39;;;;;;;6.60;4.80;;;;;;;6.44;84.00;100368.66;88176;1274;82792;-56
2022/02/10 23:04:45;;;;;;;5.90;5.20;;;;;;;6.41;84.10;100372.88;88189;1274;98270;-56